createdAt,value
2018-12-13T00:00:15.763Z,0.00
2018-12-13T00:01:15.589Z,0.00
2018-12-13T00:02:15.598Z,0.00
2018-12-13T00:03:15.504Z,0.00
2018-12-13T00:04:15.460Z,0.00
2018-12-13T00:05:15.422Z,0.00
2018-12-13T00:06:15.416Z,0.00
2018-12-13T00:07:15.370Z,0.00
2018-12-13T00:08:15.357Z,0.00
2018-12-13T00:09:15.273Z,0.00
2018-12-13T00:10:15.214Z,0.00
2018-12-13T00:11:15.258Z,0.00
2018-12-13T00:12:15.232Z,0.00
2018-12-13T00:13:15.087Z,0.00
2018-12-13T00:14:15.236Z,0.00
2018-12-13T00:15:15.137Z,0.00
2018-12-13T00:16:14.942Z,0.00
2018-12-13T00:17:14.991Z,0.00
2018-12-13T00:18:15.073Z,0.00
2018-12-13T00:19:15.496Z,0.00
2018-12-13T00:20:14.819Z,0.00
2018-12-13T00:21:15.437Z,0.00
2018-12-13T00:22:14.720Z,0.00
2018-12-13T00:23:14.718Z,0.00
2018-12-13T00:24:14.719Z,0.00
2018-12-13T00:25:14.640Z,0.00
2018-12-13T00:26:14.573Z,0.00
2018-12-13T00:27:14.770Z,0.00
2018-12-13T00:28:15.003Z,0.00
2018-12-13T00:29:14.515Z,0.00
2018-12-13T00:30:14.483Z,0.00
2018-12-13T00:31:14.646Z,0.00
2018-12-13T00:32:15.062Z,0.00
2018-12-13T00:33:14.379Z,0.00
2018-12-13T00:34:14.250Z,0.00
2018-12-13T00:35:14.579Z,0.00
2018-12-13T00:36:14.242Z,0.00
2018-12-13T00:37:14.347Z,0.00
2018-12-13T00:38:14.242Z,0.00
2018-12-13T00:39:14.107Z,0.00
2018-12-13T00:40:14.504Z,0.00
2018-12-13T00:41:14.084Z,0.00
2018-12-13T00:42:14.016Z,0.00
2018-12-13T00:43:14.046Z,0.00
2018-12-13T00:44:13.770Z,0.00
2018-12-13T00:45:13.887Z,0.00
2018-12-13T00:46:13.745Z,0.00
2018-12-13T00:47:13.840Z,0.00
2018-12-13T00:48:13.616Z,0.00
2018-12-13T00:49:14.506Z,0.00
2018-12-13T00:50:13.485Z,0.00
2018-12-13T00:51:13.599Z,0.00
2018-12-13T00:52:13.440Z,0.00
2018-12-13T00:53:13.438Z,0.00
2018-12-13T00:54:13.503Z,0.00
2018-12-13T00:55:13.561Z,0.00
2018-12-13T00:56:13.566Z,0.00
2018-12-13T00:57:13.247Z,0.00
2018-12-13T00:58:13.163Z,0.00
2018-12-13T00:59:13.134Z,0.00
2018-12-13T01:00:13.039Z,0.00
2018-12-13T01:01:13.001Z,0.00
2018-12-13T01:02:13.572Z,0.00
2018-12-13T01:03:13.252Z,0.00
2018-12-13T01:04:12.946Z,0.00
2018-12-13T01:05:12.926Z,0.00
2018-12-13T01:06:12.880Z,0.00
2018-12-13T01:07:12.793Z,0.00
2018-12-13T01:08:12.752Z,0.00
2018-12-13T01:09:12.788Z,0.00
2018-12-13T01:10:12.763Z,0.00
2018-12-13T01:11:12.678Z,0.00
2018-12-13T01:12:12.550Z,0.00
2018-12-13T01:13:12.485Z,0.00
2018-12-13T01:14:12.497Z,0.00
2018-12-13T01:15:12.540Z,0.00
2018-12-13T01:16:12.609Z,0.00
2018-12-13T01:17:13.099Z,0.00
2018-12-13T01:18:12.292Z,0.00
2018-12-13T01:19:12.383Z,0.00
2018-12-13T01:20:12.220Z,0.00
2018-12-13T01:21:12.163Z,0.00
2018-12-13T01:22:12.392Z,0.00
2018-12-13T01:23:12.058Z,0.00
2018-12-13T01:24:12.436Z,0.00
2018-12-13T01:25:12.361Z,0.00
2018-12-13T01:26:11.953Z,0.00
2018-12-13T01:27:12.182Z,0.00
2018-12-13T01:28:11.834Z,0.00
2018-12-13T01:29:11.895Z,0.00
2018-12-13T01:30:11.931Z,0.00
2018-12-13T01:31:11.915Z,0.00
2018-12-13T01:32:12.356Z,0.00
2018-12-13T01:33:12.129Z,0.00
2018-12-13T01:34:14.268Z,0.00
2018-12-13T01:35:12.474Z,0.00
2018-12-13T01:36:12.362Z,0.00
2018-12-13T01:37:11.901Z,0.00
2018-12-13T01:38:11.419Z,0.00
2018-12-13T01:39:11.381Z,0.00
2018-12-13T01:40:11.514Z,0.00
2018-12-13T01:41:11.676Z,0.00
2018-12-13T01:42:12.012Z,0.00
2018-12-13T01:43:11.222Z,0.00
2018-12-13T01:44:11.292Z,0.00
2018-12-13T01:45:11.153Z,0.00
2018-12-13T01:46:11.221Z,0.00
2018-12-13T01:47:11.271Z,0.00
2018-12-13T01:48:11.281Z,0.00
2018-12-13T01:49:15.849Z,0.00
2018-12-13T01:50:11.563Z,0.00
2018-12-13T01:51:12.144Z,0.00
2018-12-13T01:52:16.596Z,0.00
2018-12-13T01:53:11.893Z,0.00
2018-12-13T01:54:14.244Z,0.00
2018-12-13T01:55:12.401Z,0.00
2018-12-13T01:56:13.983Z,0.00
2018-12-13T01:57:16.049Z,0.00
2018-12-13T01:58:10.800Z,0.00
2018-12-13T01:59:16.020Z,0.00
2018-12-13T02:00:13.252Z,0.00
2018-12-13T02:01:14.490Z,0.00
2018-12-13T02:02:11.559Z,0.00
2018-12-13T02:03:10.611Z,0.00
2018-12-13T02:04:10.536Z,0.00
2018-12-13T02:05:10.653Z,0.00
2018-12-13T02:06:10.451Z,0.00
2018-12-13T02:07:10.189Z,0.00
2018-12-13T02:08:10.393Z,0.00
2018-12-13T02:09:10.184Z,0.00
2018-12-13T04:06:36.760Z,0.00
2018-12-13T04:07:36.679Z,0.00
2018-12-13T04:08:36.627Z,0.00
2018-12-13T04:09:36.577Z,0.00
2018-12-13T04:10:36.540Z,0.00
2018-12-13T04:11:36.486Z,0.00
2018-12-13T04:12:36.437Z,0.00
2018-12-13T04:13:36.392Z,0.00
2018-12-13T04:14:36.351Z,0.00
2018-12-13T04:15:36.297Z,0.00
2018-12-13T04:16:36.251Z,0.00
2018-12-13T04:17:36.209Z,0.00
2018-12-13T04:18:36.159Z,0.00
2018-12-13T04:19:36.125Z,0.00
2018-12-13T04:20:36.073Z,0.00
2018-12-13T04:21:36.036Z,0.00
2018-12-13T04:22:35.996Z,0.00
2018-12-13T04:23:35.937Z,0.00
2018-12-13T04:24:35.896Z,0.00
2018-12-13T04:25:35.847Z,0.00
2018-12-13T04:26:35.800Z,0.00
2018-12-13T04:27:35.761Z,0.00
2018-12-13T04:28:35.715Z,0.00
2018-12-13T04:29:35.668Z,0.00
2018-12-13T04:30:35.622Z,0.00
2018-12-13T04:31:35.583Z,0.00
2018-12-13T04:32:35.537Z,0.00
2018-12-13T04:33:35.494Z,0.00
2018-12-13T04:34:35.449Z,0.00
2018-12-13T04:35:35.400Z,0.00
2018-12-13T04:36:35.357Z,0.00
2018-12-13T04:37:35.438Z,0.00
2018-12-13T04:38:35.265Z,0.00
2018-12-13T04:39:35.227Z,0.00
2018-12-13T04:40:35.182Z,0.00
2018-12-13T04:41:35.136Z,0.00
2018-12-13T04:42:35.094Z,0.00
2018-12-13T04:43:35.044Z,0.00
2018-12-13T04:44:35.001Z,0.00
2018-12-13T04:45:34.962Z,0.00
2018-12-13T04:46:34.920Z,0.00
2018-12-13T04:47:34.869Z,0.00
2018-12-13T04:48:34.825Z,0.00
2018-12-13T04:49:34.780Z,0.00
2018-12-13T04:50:34.735Z,0.00
2018-12-13T04:51:34.704Z,0.00
2018-12-13T04:52:34.652Z,0.00
2018-12-13T04:53:34.605Z,0.00
2018-12-13T04:54:34.563Z,0.00
2018-12-13T04:55:34.514Z,0.00
2018-12-13T04:56:34.470Z,0.00
2018-12-13T04:57:34.426Z,0.00
2018-12-13T04:58:34.438Z,0.00
2018-12-13T04:59:34.344Z,0.00
2018-12-13T05:00:34.319Z,0.00
2018-12-13T05:01:34.250Z,0.00
2018-12-13T05:02:34.203Z,0.00
2018-12-13T05:03:34.166Z,0.00
2018-12-13T05:04:34.118Z,0.00
2018-12-13T05:05:34.074Z,0.00
2018-12-13T05:06:34.033Z,0.00
2018-12-13T05:07:33.982Z,0.00
2018-12-13T05:08:33.939Z,0.00
2018-12-13T05:09:33.896Z,0.00
2018-12-13T05:10:33.849Z,0.00
2018-12-13T05:11:33.811Z,0.00
2018-12-13T05:12:33.765Z,0.00
2018-12-13T05:13:33.720Z,0.00
2018-12-13T05:14:33.679Z,0.00
2018-12-13T05:15:33.628Z,0.00
2018-12-13T05:16:33.585Z,0.00
2018-12-13T05:17:33.548Z,0.00
2018-12-13T05:18:33.501Z,0.00
2018-12-13T05:19:33.452Z,0.00
2018-12-13T05:20:33.416Z,0.00
2018-12-13T05:21:33.364Z,0.00
2018-12-13T05:22:33.318Z,0.00
2018-12-13T05:23:33.280Z,0.00
2018-12-13T05:24:33.236Z,0.00
2018-12-13T05:25:33.192Z,0.00
2018-12-13T05:26:33.148Z,0.00
2018-12-13T05:27:33.098Z,0.00
2018-12-13T05:28:33.055Z,0.00
2018-12-13T05:29:33.010Z,0.00
2018-12-13T05:30:32.969Z,0.00
2018-12-13T05:31:32.958Z,0.00
2018-12-13T05:32:32.893Z,0.00
2018-12-13T05:33:32.834Z,0.00
2018-12-13T05:34:32.789Z,0.00
2018-12-13T05:35:32.749Z,0.00
2018-12-13T05:36:32.710Z,0.00
2018-12-13T05:37:32.667Z,0.00
2018-12-13T05:38:32.617Z,0.00
2018-12-13T05:39:32.567Z,0.00
2018-12-13T05:40:32.524Z,0.00
2018-12-13T05:41:32.480Z,0.00
2018-12-13T05:42:32.434Z,0.00
2018-12-13T05:43:32.398Z,0.00
2018-12-13T05:44:32.349Z,0.00
2018-12-13T05:45:32.305Z,0.00
2018-12-13T05:46:32.269Z,0.00
2018-12-13T05:47:32.216Z,0.00
2018-12-13T05:48:32.170Z,0.00
2018-12-13T05:49:32.129Z,0.00
2018-12-13T05:50:32.088Z,0.00
2018-12-13T05:51:32.036Z,0.00
2018-12-13T05:52:31.993Z,0.00
2018-12-13T05:53:31.951Z,0.00
2018-12-13T05:54:31.904Z,0.00
2018-12-13T05:55:31.865Z,0.00
2018-12-13T05:56:31.819Z,0.00
2018-12-13T05:57:31.776Z,0.00
2018-12-13T05:58:31.732Z,0.00
2018-12-13T05:59:31.683Z,0.00
2018-12-13T06:00:31.642Z,0.00
2018-12-13T06:01:31.596Z,0.00
2018-12-13T06:02:31.549Z,0.00
2018-12-13T06:03:31.511Z,0.00
2018-12-13T06:04:31.476Z,0.00
2018-12-13T06:05:31.419Z,0.00
2018-12-13T06:06:31.372Z,0.00
2018-12-13T06:07:31.336Z,0.00
2018-12-13T06:08:31.338Z,0.00
2018-12-13T06:09:31.244Z,0.00
2018-12-13T06:10:31.201Z,0.00
2018-12-13T06:11:31.154Z,0.00
2018-12-13T06:12:31.110Z,0.00
2018-12-13T06:13:31.065Z,0.00
2018-12-13T06:14:31.022Z,0.00
2018-12-13T06:15:30.981Z,0.00
2018-12-13T06:16:30.934Z,0.00
2018-12-13T06:17:30.892Z,0.00
2018-12-13T06:18:30.848Z,0.00
2018-12-13T06:19:30.797Z,0.00
2018-12-13T06:20:30.755Z,0.00
2018-12-13T06:21:36.678Z,0.00
2018-12-13T06:22:30.670Z,0.00
2018-12-13T06:23:30.624Z,0.00
2018-12-13T06:24:30.580Z,0.00
2018-12-13T06:25:30.536Z,0.00
2018-12-13T06:26:30.488Z,0.00
2018-12-13T06:27:30.456Z,0.00
2018-12-13T06:28:30.403Z,0.00
2018-12-13T06:29:30.360Z,0.00
2018-12-13T06:30:30.319Z,0.00
2018-12-13T06:31:30.266Z,0.00
2018-12-13T06:32:30.224Z,0.00
2018-12-13T06:33:30.194Z,0.00
2018-12-13T06:34:30.134Z,0.00
2018-12-13T06:35:30.095Z,0.00
2018-12-13T06:36:30.049Z,0.00
2018-12-13T06:37:30.003Z,0.00
2018-12-13T06:38:29.961Z,0.00
2018-12-13T06:39:29.919Z,0.00
2018-12-13T06:40:29.871Z,0.00
2018-12-13T06:41:29.828Z,0.00
2018-12-13T06:42:29.784Z,0.00
2018-12-13T06:43:29.738Z,0.00
2018-12-13T06:44:29.692Z,0.00
2018-12-13T06:45:29.647Z,0.00
2018-12-13T06:46:29.602Z,0.00
2018-12-13T06:47:29.563Z,0.00
2018-12-13T06:48:29.517Z,0.00
2018-12-13T06:49:29.473Z,0.00
2018-12-13T06:50:29.431Z,0.00
2018-12-13T06:51:29.381Z,0.00
2018-12-13T06:52:29.338Z,4.00
2018-12-13T06:53:29.296Z,4.00
2018-12-13T06:54:29.253Z,0.00
2018-12-13T06:55:29.204Z,0.00
2018-12-13T06:56:29.162Z,4.00
2018-12-13T06:57:29.116Z,0.00
2018-12-13T06:58:29.070Z,4.00
2018-12-13T06:59:29.032Z,4.00
2018-12-13T07:00:28.985Z,4.00
2018-12-13T07:01:28.944Z,8.00
2018-12-13T07:02:28.899Z,8.00
2018-12-13T07:03:28.849Z,8.00
2018-12-13T07:04:28.805Z,8.00
2018-12-13T07:05:28.768Z,8.00
2018-12-13T07:06:28.717Z,12.00
2018-12-13T07:07:28.679Z,12.00
2018-12-13T07:08:28.631Z,12.00
2018-12-13T07:09:28.586Z,20.00
2018-12-13T07:10:28.540Z,20.00
2018-12-13T07:11:28.500Z,24.00
2018-12-13T07:12:28.454Z,28.00
2018-12-13T07:13:28.411Z,32.00
2018-12-13T07:14:28.367Z,36.00
2018-12-13T07:15:28.317Z,40.00
2018-12-13T07:16:28.273Z,48.00
2018-12-13T07:17:28.227Z,52.00
2018-12-13T07:18:28.186Z,56.00
2018-12-13T07:19:28.143Z,64.00
2018-12-13T07:20:28.100Z,72.00
2018-12-13T07:21:28.056Z,80.00
2018-12-13T07:22:28.015Z,88.00
2018-12-13T07:23:27.965Z,96.00
2018-12-13T07:24:27.916Z,108.00
2018-12-13T07:25:27.879Z,116.00
2018-12-13T07:26:27.839Z,128.00
2018-12-13T07:27:27.786Z,140.00
2018-12-13T07:28:29.015Z,152.00
2018-12-13T07:29:27.698Z,164.00
2018-12-13T07:30:27.660Z,176.00
2018-12-13T07:31:27.614Z,188.00
2018-12-13T07:32:27.568Z,204.00
2018-12-13T07:33:27.526Z,216.00
2018-12-13T07:34:27.482Z,232.00
2018-12-13T07:35:27.434Z,248.00
2018-12-13T07:36:27.385Z,264.00
2018-12-13T07:37:27.344Z,280.00
2018-12-13T07:38:27.299Z,300.00
2018-12-13T07:39:27.257Z,316.00
2018-12-13T07:40:27.214Z,332.00
2018-12-13T07:41:27.165Z,348.00
2018-12-13T07:42:27.121Z,368.00
2018-12-13T07:43:27.080Z,388.00
2018-12-13T07:44:27.037Z,404.00
2018-12-13T07:45:26.993Z,428.00
2018-12-13T07:46:26.947Z,448.00
2018-12-13T07:47:26.902Z,472.00
2018-12-13T07:48:26.853Z,496.00
2018-12-13T07:49:26.811Z,516.00
2018-12-13T07:50:26.767Z,532.00
2018-12-13T07:51:26.727Z,564.00
2018-12-13T07:52:26.680Z,588.00
2018-12-13T07:53:26.642Z,620.00
2018-12-13T07:54:26.592Z,644.00
2018-12-13T07:55:26.547Z,664.00
2018-12-13T07:56:26.497Z,684.00
2018-12-13T07:57:26.463Z,724.00
2018-12-13T07:58:26.413Z,748.00
2018-12-13T07:59:26.373Z,756.00
2018-12-13T08:00:26.319Z,796.00
2018-12-13T08:01:26.277Z,840.00
2018-12-13T08:02:26.233Z,872.00
2018-12-13T08:03:26.191Z,900.00
2018-12-13T08:04:26.149Z,952.00
2018-12-13T08:05:26.104Z,960.00
2018-12-13T08:06:26.057Z,1016.00
2018-12-13T08:07:26.011Z,1048.00
2018-12-13T08:08:25.965Z,1072.00
2018-12-13T08:09:25.920Z,1084.00
2018-12-13T08:10:25.880Z,1116.00
2018-12-13T08:11:25.837Z,1152.00
2018-12-13T08:12:25.792Z,1172.00
2018-12-13T08:13:25.743Z,1196.00
2018-12-13T08:14:25.703Z,1220.00
2018-12-13T08:15:25.658Z,1236.00
2018-12-13T08:16:25.619Z,1252.00
2018-12-13T08:17:25.571Z,1276.00
2018-12-13T08:18:25.525Z,1300.00
2018-12-13T08:19:25.480Z,1328.00
2018-12-13T08:20:25.431Z,1352.00
2018-12-13T08:21:25.387Z,1368.00
2018-12-13T08:22:25.344Z,1392.00
2018-12-13T08:23:25.303Z,1404.00
2018-12-13T08:24:25.259Z,1428.00
2018-12-13T08:25:25.215Z,1444.00
2018-12-13T08:26:25.168Z,1464.00
2018-12-13T08:27:25.124Z,1476.00
2018-12-13T08:28:25.076Z,1492.00
2018-12-13T08:29:25.038Z,1516.00
2018-12-13T08:30:24.993Z,1524.00
2018-12-13T08:31:24.946Z,1544.00
2018-12-13T08:32:24.951Z,1552.00
2018-12-13T08:33:24.854Z,1572.00
2018-12-13T08:34:24.813Z,1592.00
2018-12-13T08:35:24.770Z,1612.00
2018-12-13T08:36:24.727Z,1632.00
2018-12-13T08:37:24.684Z,1648.00
2018-12-13T08:38:27.251Z,1656.00
2018-12-13T08:39:24.591Z,1680.00
2018-12-13T08:40:24.543Z,1692.00
2018-12-13T08:41:24.498Z,1716.00
2018-12-13T08:42:24.456Z,1744.00
2018-12-13T08:43:24.415Z,1756.00
2018-12-13T08:44:24.372Z,1772.00
2018-12-13T08:45:24.436Z,1784.00
2018-12-13T08:46:24.281Z,1812.00
2018-12-13T08:47:24.238Z,1832.00
2018-12-13T08:48:24.195Z,1836.00
2018-12-13T08:49:24.148Z,1852.00
2018-12-13T08:50:24.104Z,1868.00
2018-12-13T08:51:24.057Z,1884.00
2018-12-13T08:52:24.011Z,1892.00
2018-12-13T08:53:23.972Z,1916.00
2018-12-13T08:54:23.924Z,1924.00
2018-12-13T08:55:23.882Z,1932.00
2018-12-13T08:56:23.843Z,1936.00
2018-12-13T08:57:23.795Z,1948.00
2018-12-13T08:58:23.750Z,1960.00
2018-12-13T08:59:23.705Z,1972.00
2018-12-13T09:00:23.657Z,1988.00
2018-12-13T09:01:23.618Z,1996.00
2018-12-13T09:02:23.573Z,1996.00
2018-12-13T09:03:23.526Z,2004.00
2018-12-13T09:04:23.478Z,1992.00
2018-12-13T09:05:23.434Z,2016.00
2018-12-13T09:06:23.391Z,2024.00
2018-12-13T09:07:23.355Z,1960.00
2018-12-13T09:08:23.306Z,2024.00
2018-12-13T09:09:23.262Z,2068.00
2018-12-13T09:10:23.216Z,2096.00
2018-12-13T09:11:23.171Z,2100.00
2018-12-13T09:12:23.125Z,2104.00
2018-12-13T09:13:23.078Z,2116.00
2018-12-13T09:14:23.036Z,2116.00
2018-12-13T09:15:22.995Z,2116.00
2018-12-13T09:16:22.952Z,2124.00
2018-12-13T09:17:22.901Z,2132.00
2018-12-13T09:18:22.859Z,2148.00
2018-12-13T09:19:22.818Z,2140.00
2018-12-13T09:20:22.774Z,2128.00
2018-12-13T09:21:22.730Z,2156.00
2018-12-13T09:22:22.685Z,2036.00
2018-12-13T09:23:22.638Z,1920.00
2018-12-13T09:24:22.594Z,1960.00
2018-12-13T09:25:22.546Z,1844.00
2018-12-13T09:26:22.504Z,1840.00
2018-12-13T09:27:22.465Z,2180.00
2018-12-13T09:28:22.421Z,1800.00
2018-12-13T09:29:22.375Z,2168.00
2018-12-13T09:30:22.329Z,1904.00
2018-12-13T09:31:22.285Z,2128.00
2018-12-13T09:32:22.236Z,2328.00
2018-12-13T09:33:22.198Z,2296.00
2018-12-13T09:34:22.153Z,1876.00
2018-12-13T09:35:22.107Z,2260.00
2018-12-13T09:36:22.059Z,2192.00
2018-12-13T09:37:22.015Z,2288.00
2018-12-13T09:38:21.973Z,2140.00
2018-12-13T09:39:21.932Z,2272.00
2018-12-13T09:40:21.891Z,1912.00
2018-12-13T09:41:21.845Z,1996.00
2018-12-13T09:42:21.798Z,2004.00
2018-12-13T09:43:21.751Z,2256.00
2018-12-13T09:44:21.705Z,2028.00
2018-12-13T09:45:21.664Z,1804.00
2018-12-13T09:46:21.619Z,1884.00
2018-12-13T09:47:21.579Z,1752.00
2018-12-13T09:48:21.534Z,1772.00
2018-12-13T09:49:21.484Z,1764.00
2018-12-13T09:50:21.442Z,1784.00
2018-12-13T09:51:21.399Z,1748.00
2018-12-13T09:52:21.356Z,1780.00
2018-12-13T09:53:21.312Z,1756.00
2018-12-13T09:54:21.266Z,1768.00
2018-12-13T09:55:21.224Z,1840.00
2018-12-13T09:56:21.173Z,1876.00
2018-12-13T09:57:21.129Z,2012.00
2018-12-13T09:58:21.088Z,1864.00
2018-12-13T09:59:21.048Z,2052.00
2018-12-13T10:00:21.003Z,2528.00
2018-12-13T10:01:20.959Z,1848.00
2018-12-13T10:02:20.912Z,1800.00
2018-12-13T10:03:20.867Z,1852.00
2018-12-13T10:04:20.818Z,1796.00
2018-12-13T10:05:20.785Z,1812.00
2018-12-13T10:06:20.736Z,1816.00
2018-12-13T10:20:33.574Z,2616.00
2018-12-13T10:21:33.498Z,2000.00
2018-12-13T10:22:33.452Z,2052.00
2018-12-13T10:23:33.402Z,2684.00
2018-12-13T10:24:33.356Z,2568.00
2018-12-13T10:25:33.308Z,2704.00
2018-12-13T10:26:33.264Z,2852.00
2018-12-13T10:27:33.215Z,2988.00
2018-12-13T10:28:33.170Z,3116.00
2018-12-13T10:29:33.121Z,2636.00
2018-12-13T10:30:33.078Z,2984.00
2018-12-13T10:31:33.032Z,2904.00
2018-12-13T10:32:32.989Z,2832.00
2018-12-13T10:33:32.945Z,2868.00
2018-12-13T10:34:32.901Z,2360.00
2018-12-13T10:35:32.857Z,2728.00
2018-12-13T10:36:32.810Z,2720.00
2018-12-13T10:37:32.761Z,2816.00
2018-12-13T10:38:32.718Z,2060.00
2018-12-13T10:39:32.676Z,2692.00
2018-12-13T10:40:32.631Z,2372.00
2018-12-13T10:41:32.590Z,2048.00
2018-12-13T10:42:32.539Z,2148.00
2018-12-13T10:43:32.503Z,2040.00
2018-12-13T10:44:32.455Z,2008.00
2018-12-13T10:45:32.413Z,1992.00
2018-12-13T10:46:32.366Z,2024.00
2018-12-13T10:47:32.321Z,2148.00
2018-12-13T10:48:32.275Z,2788.00
2018-12-13T10:49:32.239Z,2336.00
2018-12-13T10:50:32.185Z,2644.00
2018-12-13T10:51:32.141Z,2392.00
2018-12-13T10:52:32.101Z,2324.00
2018-12-13T10:53:32.055Z,2300.00
2018-12-13T10:54:32.012Z,2728.00
2018-12-13T10:55:31.967Z,2532.00
2018-12-13T10:56:31.919Z,3388.00
2018-12-13T10:57:31.872Z,2452.00
2018-12-13T10:58:31.834Z,2740.00
2018-12-13T10:59:31.788Z,2208.00
2018-12-13T11:00:31.743Z,2212.00
2018-12-13T11:01:31.694Z,2252.00
2018-12-13T11:02:31.653Z,2424.00
2018-12-13T11:03:31.615Z,2220.00
2018-12-13T11:04:31.568Z,2012.00
2018-12-13T11:05:31.525Z,2012.00
2018-12-13T11:06:31.481Z,1944.00
2018-12-13T11:07:31.437Z,2072.00
2018-12-13T11:08:31.389Z,1996.00
2018-12-13T11:09:31.344Z,2016.00
2018-12-13T11:10:31.301Z,1984.00
2018-12-13T11:11:31.260Z,2108.00
2018-12-13T11:12:31.215Z,2084.00
2018-12-13T11:13:31.173Z,2064.00
2018-12-13T11:14:31.122Z,2364.00
2018-12-13T11:15:31.082Z,2316.00
2018-12-13T11:16:31.039Z,1980.00
2018-12-13T11:17:30.996Z,2900.00
2018-12-13T11:18:30.952Z,2312.00
2018-12-13T11:19:30.906Z,2180.00
2018-12-13T11:20:30.860Z,3096.00
2018-12-13T11:21:30.814Z,2652.00
2018-12-13T11:22:30.771Z,2276.00
2018-12-13T11:23:30.730Z,2080.00
2018-12-13T11:24:30.685Z,2460.00
2018-12-13T11:25:30.643Z,2148.00
2018-12-13T11:26:30.598Z,2068.00
2018-12-13T11:27:30.554Z,2160.00
2018-12-13T11:28:30.508Z,2268.00
2018-12-13T11:29:30.459Z,2364.00
2018-12-13T11:30:30.422Z,3392.00
2018-12-13T11:31:30.381Z,2492.00
2018-12-13T11:32:30.336Z,3004.00
2018-12-13T11:33:30.283Z,2856.00
2018-12-13T11:34:30.242Z,3132.00
2018-12-13T11:35:30.199Z,2500.00
2018-12-13T11:36:30.157Z,2668.00
2018-12-13T11:37:30.118Z,2352.00
2018-12-13T11:38:30.071Z,3548.00
2018-12-13T11:39:30.025Z,2660.00
2018-12-13T11:40:29.979Z,3532.00
2018-12-13T11:41:29.932Z,3348.00
2018-12-13T11:42:29.890Z,3316.00
2018-12-13T11:43:29.846Z,3356.00
2018-12-13T11:44:29.805Z,3316.00
2018-12-13T11:45:29.762Z,3236.00
2018-12-13T11:46:29.712Z,3304.00
2018-12-13T11:47:29.671Z,3284.00
2018-12-13T11:48:29.629Z,3192.00
2018-12-13T11:49:29.587Z,3192.00
2018-12-13T11:50:29.548Z,3140.00
2018-12-13T11:51:29.498Z,3076.00
2018-12-13T11:52:29.452Z,2952.00
2018-12-13T11:53:29.406Z,2988.00
2018-12-13T11:54:29.375Z,3036.00
2018-12-13T11:55:29.321Z,3044.00
2018-12-13T11:56:29.300Z,3024.00
2018-12-13T11:57:29.238Z,2892.00
2018-12-13T11:58:29.255Z,3024.00
2018-12-13T11:59:29.147Z,2720.00
2018-12-13T12:00:29.111Z,3020.00
2018-12-13T12:01:29.063Z,2988.00
2018-12-13T12:02:29.019Z,2992.00
2018-12-13T12:03:28.974Z,2868.00
2018-12-13T12:04:28.930Z,2848.00
2018-12-13T12:05:28.882Z,2864.00
2018-12-13T12:06:28.840Z,2952.00
2018-12-13T12:07:28.795Z,2984.00
2018-12-13T12:08:28.754Z,2924.00
2018-12-13T12:09:28.712Z,2876.00
2018-12-13T12:10:28.677Z,2920.00
2018-12-13T12:11:28.624Z,2976.00
2018-12-13T12:12:28.578Z,2996.00
2018-12-13T12:13:28.530Z,2980.00
2018-12-13T12:14:28.488Z,1892.00
2018-12-13T12:15:28.446Z,3012.00
2018-12-13T12:16:28.407Z,2996.00
2018-12-13T12:17:28.362Z,3028.00
2018-12-13T12:18:28.316Z,2920.00
2018-12-13T12:19:28.336Z,2308.00
2018-12-13T12:20:28.230Z,3076.00
2018-12-13T12:21:28.186Z,3028.00
2018-12-13T12:22:28.144Z,2976.00
2018-12-13T12:23:28.098Z,2996.00
2018-12-13T12:24:28.055Z,3020.00
2018-12-13T12:25:28.007Z,3008.00
2018-12-13T12:26:27.963Z,3036.00
2018-12-13T12:27:27.920Z,3040.00
2018-12-13T12:28:27.881Z,2928.00
2018-12-13T12:29:27.836Z,3032.00
2018-12-13T12:30:27.794Z,3008.00
2018-12-13T12:31:27.748Z,3024.00
2018-12-13T12:32:27.702Z,3044.00
2018-12-13T12:33:27.656Z,3052.00
2018-12-13T12:34:27.618Z,3044.00
2018-12-13T12:35:27.574Z,3088.00
2018-12-13T12:36:27.527Z,3104.00
2018-12-13T12:37:27.482Z,3092.00
2018-12-13T12:38:27.437Z,3084.00
2018-12-13T12:39:27.398Z,3084.00
2018-12-13T12:40:27.355Z,3072.00
2018-12-13T12:41:27.312Z,3064.00
2018-12-13T12:42:27.270Z,3360.00
2018-12-13T12:43:27.223Z,3208.00
2018-12-13T12:44:27.177Z,3036.00
2018-12-13T12:45:27.131Z,3040.00
2018-12-13T12:46:27.089Z,3044.00
2018-12-13T12:47:27.046Z,3128.00
2018-12-13T12:48:27.004Z,2996.00
2018-12-13T12:49:26.963Z,1964.00
2018-12-13T12:50:26.956Z,2884.00
2018-12-13T12:51:26.876Z,2772.00
2018-12-13T12:52:26.832Z,2812.00
2018-12-13T12:53:26.789Z,2764.00
2018-12-13T12:54:26.747Z,2708.00
2018-12-13T12:55:26.703Z,2648.00
2018-12-13T12:56:26.654Z,2672.00
2018-12-13T12:57:26.608Z,2584.00
2018-12-13T12:58:26.565Z,2552.00
2018-12-13T12:59:26.525Z,2544.00
2018-12-13T13:00:26.482Z,2540.00
2018-12-13T13:01:26.439Z,2552.00
2018-12-13T13:02:26.397Z,2484.00
2018-12-13T13:03:26.352Z,2432.00
2018-12-13T13:04:26.306Z,2404.00
2018-12-13T13:05:26.262Z,2408.00
2018-12-13T13:06:26.222Z,2396.00
2018-12-13T13:07:26.177Z,2348.00
2018-12-13T13:08:26.132Z,2340.00
2018-12-13T13:09:26.087Z,2316.00
2018-12-13T13:10:26.042Z,2280.00
2018-12-13T13:11:26.000Z,2016.00
2018-12-13T13:12:25.960Z,1740.00
2018-12-13T13:13:25.919Z,2296.00
2018-12-13T13:14:25.872Z,2288.00
2018-12-13T13:15:25.832Z,1720.00
2018-12-13T13:16:25.784Z,2164.00
2018-12-13T13:17:25.739Z,1724.00
2018-12-13T13:18:25.696Z,1560.00
2018-12-13T13:19:25.650Z,1648.00
2018-12-13T13:20:25.612Z,2232.00
2018-12-13T13:21:25.566Z,1556.00
2018-12-13T13:22:25.521Z,2096.00
2018-12-13T13:23:25.474Z,2108.00
2018-12-13T13:24:25.440Z,2048.00
2018-12-13T13:25:25.391Z,2140.00
2018-12-13T13:26:25.349Z,2164.00
2018-12-13T13:27:25.307Z,2112.00
2018-12-13T13:28:25.256Z,2092.00
2018-12-13T13:29:25.295Z,1888.00
2018-12-13T13:30:25.171Z,1540.00
2018-12-13T13:31:25.126Z,1632.00
2018-12-13T13:32:25.088Z,1756.00
2018-12-13T13:33:25.041Z,1956.00
2018-12-13T13:34:24.997Z,1888.00
2018-12-13T13:35:24.956Z,1792.00
2018-12-13T13:36:24.906Z,1584.00
2018-12-13T13:37:24.863Z,1448.00
2018-12-13T13:38:24.823Z,1632.00
2018-12-13T13:39:31.283Z,1620.00
2018-12-13T13:40:24.732Z,1580.00
2018-12-13T13:41:24.689Z,1544.00
2018-12-13T13:42:24.646Z,1512.00
2018-12-13T13:43:24.599Z,1480.00
2018-12-13T13:44:24.562Z,1464.00
2018-12-13T13:45:24.516Z,1440.00
2018-12-13T13:46:24.471Z,1412.00
2018-12-13T13:47:24.431Z,1412.00
2018-12-13T13:48:24.381Z,1404.00
2018-12-13T13:49:24.338Z,1376.00
2018-12-13T13:50:24.294Z,1368.00
2018-12-13T13:51:24.249Z,1380.00
2018-12-13T13:52:24.212Z,1380.00
2018-12-13T13:53:24.165Z,1368.00
2018-12-13T13:54:24.119Z,1344.00
2018-12-13T13:55:24.077Z,1332.00
2018-12-13T13:56:24.036Z,1332.00
2018-12-13T13:57:23.989Z,1324.00
2018-12-13T13:58:23.945Z,1316.00
2018-12-13T13:59:23.903Z,1296.00
2018-12-13T14:00:23.855Z,1296.00
2018-12-13T14:01:23.811Z,1288.00
2018-12-13T14:02:23.768Z,1280.00
2018-12-13T14:03:23.724Z,1268.00
2018-12-13T14:04:23.684Z,1268.00
2018-12-13T14:05:23.638Z,1260.00
2018-12-13T14:06:23.597Z,1252.00
2018-12-13T14:07:23.553Z,1244.00
2018-12-13T14:08:23.503Z,1236.00
2018-12-13T14:09:23.460Z,1228.00
2018-12-13T14:10:23.419Z,1216.00
2018-12-13T14:11:23.376Z,1204.00
2018-12-13T14:12:23.328Z,1188.00
2018-12-13T14:13:23.286Z,1176.00
2018-12-13T14:14:23.240Z,1168.00
2018-12-13T14:15:23.196Z,1156.00
2018-12-13T14:16:23.160Z,1136.00
2018-12-13T14:17:23.110Z,1132.00
2018-12-13T14:18:23.067Z,1128.00
2018-12-13T14:19:23.026Z,1120.00
2018-12-13T14:20:22.981Z,1100.00
2018-12-13T14:21:22.932Z,1088.00
2018-12-13T14:22:22.890Z,1080.00
2018-12-13T14:23:22.843Z,1072.00
2018-12-13T14:24:22.809Z,1064.00
2018-12-13T14:25:22.758Z,1056.00
2018-12-13T14:26:22.714Z,1040.00
2018-12-13T14:27:22.668Z,1020.00
2018-12-13T14:28:22.632Z,1008.00
2018-12-13T14:29:22.591Z,1000.00
2018-12-13T14:30:22.539Z,988.00
2018-12-13T14:31:22.498Z,976.00
2018-12-13T14:32:22.448Z,960.00
2018-12-13T14:33:22.407Z,952.00
2018-12-13T14:34:22.362Z,936.00
2018-12-13T14:35:22.319Z,916.00
2018-12-13T14:36:22.278Z,900.00
2018-12-13T14:37:22.232Z,884.00
2018-12-13T14:38:22.189Z,872.00
2018-12-13T14:39:22.152Z,856.00
2018-12-13T14:40:22.095Z,844.00
2018-12-13T14:41:22.054Z,828.00
2018-12-13T14:42:22.012Z,812.00
2018-12-13T14:43:21.970Z,800.00
2018-12-13T14:44:21.943Z,776.00
2018-12-13T14:45:21.877Z,764.00